createdAt,value
2018-06-25T00:02:14.989Z,6.65
2018-06-25T00:07:44.545Z,7.78
2018-06-25T00:13:14.145Z,7.33
2018-06-25T00:18:43.903Z,7.17
2018-06-25T00:24:13.632Z,8.03
2018-06-25T00:29:43.916Z,8.03
2018-06-25T00:35:14.139Z,9.75
2018-06-25T00:40:44.508Z,8.90
2018-06-25T00:46:15.632Z,8.40
2018-06-25T00:51:45.868Z,8.23
2018-06-25T00:57:15.593Z,8.40
2018-06-25T01:02:45.373Z,8.60
2018-06-25T01:08:15.054Z,9.10
2018-06-25T01:13:45.088Z,9.15
2018-06-25T01:19:14.740Z,8.90
2018-06-25T01:24:44.837Z,8.90
2018-06-25T01:30:15.615Z,9.03
2018-06-25T01:35:45.718Z,9.03
2018-06-25T01:41:15.748Z,9.60
2018-06-25T01:46:46.014Z,10.68
2018-06-25T01:52:16.382Z,10.53
2018-06-25T01:57:46.613Z,13.00
2018-06-25T02:03:16.522Z,11.93
2018-06-25T02:08:46.703Z,10.80
2018-06-25T02:14:16.649Z,8.75
2018-06-25T02:19:46.398Z,9.35
2018-06-25T02:25:16.191Z,9.60
2018-06-25T02:30:45.956Z,8.60
2018-06-25T02:36:15.321Z,9.15
2018-06-25T02:41:44.913Z,9.30
2018-06-25T02:47:14.441Z,9.45
2018-06-25T02:52:44.232Z,9.63
2018-06-25T02:58:14.791Z,10.28
2018-06-25T03:03:45.107Z,10.98
2018-06-25T03:09:15.191Z,8.78
2018-06-25T03:14:46.090Z,8.90
2018-06-25T03:20:15.710Z,9.58
2018-06-25T03:25:45.565Z,9.55
2018-06-25T03:31:17.206Z,11.53
2018-06-25T03:36:46.833Z,10.90
2018-06-25T03:42:16.231Z,9.80
2018-06-25T03:47:45.891Z,9.15
2018-06-25T03:53:15.898Z,8.48
2018-06-25T03:58:45.911Z,9.08
2018-06-25T04:04:15.497Z,9.80
2018-06-25T04:09:45.684Z,9.83
2018-06-25T04:15:15.623Z,11.18
2018-06-25T04:20:45.792Z,7.97
2018-06-25T04:26:15.350Z,7.00
2018-06-25T04:31:45.126Z,7.83
2018-06-25T04:37:15.632Z,8.30
2018-06-25T04:42:45.498Z,8.43
2018-06-25T04:48:15.937Z,8.25
2018-06-25T04:53:45.465Z,8.43
2018-06-25T04:59:15.763Z,8.45
2018-06-25T05:04:46.110Z,8.65
2018-06-25T05:10:15.596Z,8.05
2018-06-25T05:15:45.931Z,7.97
2018-06-25T05:21:16.114Z,7.70
2018-06-25T05:26:47.587Z,9.35
2018-06-25T05:32:17.582Z,9.15
2018-06-25T05:37:47.604Z,7.67
2018-06-25T05:43:17.804Z,8.10
2018-06-25T05:48:47.727Z,8.55
2018-06-25T05:54:17.363Z,7.33
2018-06-25T05:59:47.497Z,8.00
2018-06-25T06:05:17.762Z,6.53
2018-06-25T06:10:48.135Z,6.47
2018-06-25T06:16:18.426Z,6.30
2018-06-25T06:21:48.895Z,6.10
2018-06-25T06:27:18.972Z,6.97
2018-06-25T06:32:49.845Z,6.97
2018-06-25T06:38:20.268Z,6.12
2018-06-25T06:43:49.952Z,6.42
2018-06-25T06:49:19.643Z,4.90
2018-06-25T06:54:49.610Z,5.53
2018-06-25T07:00:19.026Z,4.90
2018-06-25T07:05:49.741Z,4.67
2018-06-25T07:11:19.551Z,4.90
2018-06-25T07:16:50.226Z,5.03
2018-06-25T07:22:20.980Z,6.65
2018-06-25T07:27:51.416Z,6.37
2018-06-25T07:33:21.259Z,5.85
2018-06-25T07:38:50.800Z,7.22
2018-06-25T07:44:21.079Z,6.90
2018-06-25T07:49:51.434Z,7.28
2018-06-25T07:55:21.669Z,5.85
2018-06-25T08:00:51.605Z,5.33
2018-06-25T08:06:22.024Z,5.65
2018-06-25T08:11:51.868Z,5.87
2018-06-25T08:17:22.004Z,7.17
2018-06-25T08:22:51.881Z,6.60
2018-06-25T08:28:22.114Z,6.65
2018-06-25T08:33:52.647Z,6.15
2018-06-25T08:39:22.720Z,7.25
2018-06-25T08:44:52.330Z,5.65
2018-06-25T08:50:22.118Z,5.05
2018-06-25T08:55:51.708Z,5.25
2018-06-25T09:01:21.240Z,5.95
2018-06-25T09:06:50.905Z,5.70
2018-06-25T09:12:20.702Z,4.97
2018-06-25T09:17:50.802Z,5.15
2018-06-25T09:23:20.537Z,5.05
2018-06-25T09:28:50.079Z,5.12
2018-06-25T09:34:25.031Z,3.47
2018-06-25T09:39:54.594Z,3.60
2018-06-25T09:45:24.694Z,4.35
2018-06-25T09:50:54.810Z,4.35
2018-06-25T09:56:24.724Z,4.50
2018-06-25T10:01:55.044Z,5.33
2018-06-25T10:07:27.901Z,5.00
2018-06-25T10:12:57.622Z,5.33
2018-06-25T10:18:26.839Z,4.78
2018-06-25T10:23:56.205Z,4.90
2018-06-25T10:29:26.099Z,5.00
2018-06-25T10:34:56.080Z,4.95
2018-06-25T10:40:25.831Z,5.03
2018-06-25T10:45:55.539Z,4.12
2018-06-25T10:51:25.093Z,4.22
2018-06-25T10:56:54.589Z,4.10
2018-06-25T11:02:24.651Z,3.55
2018-06-25T11:07:54.431Z,3.10
2018-06-25T11:13:23.642Z,2.45
2018-06-25T11:18:53.529Z,2.72
2018-06-25T11:24:22.987Z,2.67
2018-06-25T11:29:52.520Z,2.27
2018-06-25T11:35:21.792Z,2.22
2018-06-25T11:40:51.401Z,2.30
2018-06-25T11:46:21.047Z,5.15
2018-06-25T11:51:50.621Z,1.98
2018-06-25T11:57:19.905Z,2.10
2018-06-25T12:02:49.500Z,2.02
2018-06-25T12:08:18.886Z,2.00
2018-06-25T12:13:48.423Z,2.33
2018-06-25T12:19:18.001Z,2.00
2018-06-25T12:24:47.687Z,1.90
2018-06-25T12:30:17.159Z,2.50
2018-06-25T12:35:46.451Z,2.65
2018-06-25T12:41:16.020Z,2.25
2018-06-25T12:46:46.732Z,3.30
2018-06-25T12:52:17.350Z,3.27
2018-06-25T12:57:47.259Z,3.47
2018-06-25T13:03:17.547Z,2.70
2018-06-25T13:08:48.081Z,3.27
2018-06-25T13:14:18.152Z,2.65
2018-06-25T13:19:47.980Z,2.50
2018-06-25T13:25:17.535Z,2.98
2018-06-25T13:30:48.036Z,2.95
2018-06-25T13:36:18.172Z,2.75
2018-06-25T13:41:47.995Z,2.50
2018-06-25T13:47:18.848Z,3.22
2018-06-25T13:52:49.026Z,2.55
2018-06-25T13:58:18.784Z,2.98
2018-06-25T14:03:48.698Z,2.00
2018-06-25T14:09:18.959Z,2.22
2018-06-25T14:14:48.561Z,2.27
2018-06-25T14:20:19.381Z,2.10
2018-06-25T14:25:54.139Z,2.70
2018-06-25T14:31:25.132Z,2.30
2018-06-25T14:36:54.264Z,2.17
2018-06-25T14:42:23.836Z,2.37
2018-06-25T14:47:54.041Z,2.42
2018-06-25T14:53:23.945Z,1.67
2018-06-25T14:58:53.444Z,2.25
2018-06-25T15:04:23.040Z,1.75
2018-06-25T15:09:52.847Z,2.05
2018-06-25T15:15:22.469Z,1.75
2018-06-25T15:20:53.802Z,1.80
2018-06-25T15:26:23.089Z,1.85
2018-06-25T15:31:52.681Z,1.62
2018-06-25T15:37:22.671Z,1.87
2018-06-25T15:42:52.408Z,1.60
2018-06-25T15:48:22.144Z,1.42
2018-06-25T15:53:51.770Z,1.50
2018-06-25T15:59:21.596Z,1.50
2018-06-25T16:04:51.179Z,1.45
2018-06-25T16:10:20.685Z,1.55
2018-06-25T16:15:50.491Z,1.82
2018-06-25T16:21:20.416Z,1.30
2018-06-25T16:26:49.893Z,1.57
2018-06-25T16:32:20.832Z,1.85
2018-06-25T16:37:50.286Z,1.80
2018-06-25T16:43:19.735Z,2.65
2018-06-25T16:48:49.372Z,1.85
2018-06-25T16:54:19.011Z,1.90
2018-06-25T16:59:49.561Z,2.00
2018-06-25T17:05:19.247Z,2.40
2018-06-25T17:10:49.367Z,2.22
2018-06-25T17:16:19.309Z,1.77
2018-06-25T17:21:49.184Z,1.45
2018-06-25T17:27:19.528Z,1.57
2018-06-25T17:32:49.779Z,1.67
2018-06-25T17:38:19.817Z,1.70
2018-06-25T17:43:49.575Z,1.50
2018-06-25T17:49:19.665Z,1.85
2018-06-25T17:54:50.737Z,1.60
2018-06-25T18:00:20.774Z,1.50
2018-06-25T18:05:51.103Z,1.70
2018-06-25T18:11:23.269Z,1.72
2018-06-25T18:16:57.844Z,2.15
2018-06-25T18:22:28.489Z,2.00
2018-06-25T18:28:00.369Z,1.77
2018-06-25T18:33:29.579Z,2.47
2018-06-25T18:38:59.110Z,2.35
2018-06-25T18:44:28.604Z,2.20
2018-06-25T18:49:58.224Z,1.72
2018-06-25T18:55:27.738Z,1.70
2018-06-25T19:00:57.313Z,1.90
2018-06-25T19:06:26.866Z,2.47
2018-06-25T19:11:56.689Z,1.40
2018-06-25T19:17:26.386Z,2.00
2018-06-25T19:22:56.116Z,1.92
2018-06-25T19:28:25.935Z,2.00
2018-06-25T19:33:55.601Z,2.10
2018-06-25T19:39:25.828Z,1.87
2018-06-25T19:44:55.440Z,2.30
2018-06-25T19:50:25.068Z,2.47
2018-06-25T19:55:55.529Z,2.25
2018-06-25T20:01:24.823Z,3.20
2018-06-25T20:06:54.013Z,2.40
2018-06-25T20:12:23.288Z,3.20
2018-06-25T20:17:52.541Z,2.35
2018-06-25T20:23:21.792Z,2.25
2018-06-25T20:28:51.124Z,3.12
2018-06-25T20:34:20.195Z,2.80
2018-06-25T20:39:49.661Z,2.30
2018-06-25T20:45:18.983Z,2.95
2018-06-25T20:50:48.485Z,2.47
2018-06-25T20:56:17.895Z,2.98
2018-06-25T21:01:47.273Z,2.72
2018-06-25T21:07:16.838Z,3.00
2018-06-25T21:12:46.727Z,3.33
2018-06-25T21:18:16.504Z,3.00
2018-06-25T21:23:46.284Z,2.98
2018-06-25T21:29:15.755Z,2.80
2018-06-25T21:34:45.366Z,2.65
2018-06-25T21:40:16.017Z,2.58
2018-06-25T21:45:45.813Z,3.15
2018-06-25T21:51:16.178Z,2.90
2018-06-25T21:56:46.762Z,2.40
2018-06-25T22:02:16.792Z,3.15
2018-06-25T22:07:48.120Z,2.92
2018-06-25T22:13:17.636Z,3.15
2018-06-25T22:18:47.084Z,2.70
2018-06-25T22:24:16.481Z,3.10
2018-06-25T22:29:46.469Z,2.90
2018-06-25T22:35:18.448Z,2.98
2018-06-25T22:40:48.098Z,3.05
2018-06-25T22:46:17.733Z,3.00
2018-06-25T22:51:47.567Z,3.27
2018-06-25T22:57:17.615Z,3.30
2018-06-25T23:02:47.013Z,3.20
2018-06-25T23:09:19.060Z,3.22
2018-06-25T23:14:48.483Z,3.45
2018-06-25T23:20:17.893Z,3.35
2018-06-25T23:25:47.386Z,3.15
2018-06-25T23:31:16.910Z,3.55
2018-06-25T23:36:46.298Z,3.30
2018-06-25T23:42:15.691Z,3.35
2018-06-25T23:48:47.990Z,3.50
2018-06-25T23:54:17.392Z,3.77
2018-06-25T23:59:46.949Z,3.52
